sensor_id;sensor_type;location;lat;lon;timestamp;pressure;altitude;pressure_sealevel;temperature;humidity
15646;BME280;7922;43.622;1.476;2023-12-22T00:01:55;101013.13;;;10.32;100.00
15646;BME280;7922;43.622;1.476;2023-12-22T00:04:21;101025.25;;;10.41;100.00
15646;BME280;7922;43.622;1.476;2023-12-22T00:06:46;101033.09;;;10.46;100.00
15646;BME280;7922;43.622;1.476;2023-12-22T00:09:11;101013.00;;;10.37;100.00
15646;BME280;7922;43.622;1.476;2023-12-22T00:11:37;101044.47;;;10.49;100.00
15646;BME280;7922;43.622;1.476;2023-12-22T00:14:02;101009.47;;;10.36;100.00
15646;BME280;7922;43.622;1.476;2023-12-22T00:16:27;101009.59;;;10.32;100.00
15646;BME280;7922;43.622;1.476;2023-12-22T00:18:53;101044.69;;;10.40;100.00
15646;BME280;7922;43.622;1.476;2023-12-22T00:21:18;101030.94;;;10.26;100.00
15646;BME280;7922;43.622;1.476;2023-12-22T00:23:43;101033.59;;;10.23;100.00
15646;BME280;7922;43.622;1.476;2023-12-22T00:26:09;101043.22;;;10.28;100.00
15646;BME280;7922;43.622;1.476;2023-12-22T00:28:34;101001.28;;;10.08;100.00
15646;BME280;7922;43.622;1.476;2023-12-22T00:30:59;101029.06;;;10.29;100.00
15646;BME280;7922;43.622;1.476;2023-12-22T00:33:25;101021.41;;;10.17;100.00
15646;BME280;7922;43.622;1.476;2023-12-22T00:35:51;101036.25;;;10.24;100.00
15646;BME280;7922;43.622;1.476;2023-12-22T00:38:16;101014.69;;;10.02;100.00
15646;BME280;7922;43.622;1.476;2023-12-22T00:40:41;101026.84;;;10.11;100.00
15646;BME280;7922;43.622;1.476;2023-12-22T00:43:07;101013.81;;;10.02;100.00
15646;BME280;7922;43.622;1.476;2023-12-22T00:45:32;101041.75;;;10.15;100.00
15646;BME280;7922;43.622;1.476;2023-12-22T00:47:57;101046.28;;;10.10;100.00
15646;BME280;7922;43.622;1.476;2023-12-22T00:50:22;101028.03;;;9.98;100.00
15646;BME280;7922;43.622;1.476;2023-12-22T00:52:48;101032.44;;;9.99;100.00
15646;BME280;7922;43.622;1.476;2023-12-22T00:55:13;101049.00;;;10.05;100.00
15646;BME280;7922;43.622;1.476;2023-12-22T00:57:38;101070.88;;;10.15;100.00
15646;BME280;7922;43.622;1.476;2023-12-22T01:00:04;101038.59;;;9.98;100.00
15646;BME280;7922;43.622;1.476;2023-12-22T01:02:29;101063.91;;;10.11;100.00
15646;BME280;7922;43.622;1.476;2023-12-22T01:04:55;101044.78;;;9.98;100.00
15646;BME280;7922;43.622;1.476;2023-12-22T01:07:20;101045.50;;;10.05;100.00
15646;BME280;7922;43.622;1.476;2023-12-22T01:09:45;101035.03;;;10.00;100.00
15646;BME280;7922;43.622;1.476;2023-12-22T01:12:10;101049.81;;;10.10;100.00
15646;BME280;7922;43.622;1.476;2023-12-22T01:14:36;101029.81;;;9.97;100.00
15646;BME280;7922;43.622;1.476;2023-12-22T01:17:01;101004.44;;;9.87;100.00
15646;BME280;7922;43.622;1.476;2023-12-22T01:19:27;101019.28;;;9.94;100.00
15646;BME280;7922;43.622;1.476;2023-12-22T01:21:52;101022.91;;;9.90;100.00
15646;BME280;7922;43.622;1.476;2023-12-22T01:24:17;101044.63;;;10.04;100.00
15646;BME280;7922;43.622;1.476;2023-12-22T01:26:42;101043.91;;;9.98;100.00
15646;BME280;7922;43.622;1.476;2023-12-22T01:29:08;101002.81;;;9.81;100.00
15646;BME280;7922;43.622;1.476;2023-12-22T01:31:33;101042.03;;;10.03;100.00
15646;BME280;7922;43.622;1.476;2023-12-22T01:33:58;101011.56;;;9.85;100.00
15646;BME280;7922;43.622;1.476;2023-12-22T01:36:24;101043.03;;;9.99;100.00
15646;BME280;7922;43.622;1.476;2023-12-22T01:38:49;101022.09;;;9.88;100.00
15646;BME280;7922;43.622;1.476;2023-12-22T01:41:14;101059.47;;;10.11;100.00
15646;BME280;7922;43.622;1.476;2023-12-22T01:43:39;101018.66;;;9.83;100.00
15646;BME280;7922;43.622;1.476;2023-12-22T01:46:05;101049.94;;;10.04;100.00
15646;BME280;7922;43.622;1.476;2023-12-22T01:48:31;101058.75;;;10.05;100.00
15646;BME280;7922;43.622;1.476;2023-12-22T01:50:58;101023.03;;;9.85;100.00
15646;BME280;7922;43.622;1.476;2023-12-22T01:53:24;101028.31;;;9.84;100.00
15646;BME280;7922;43.622;1.476;2023-12-22T01:55:50;101022.22;;;9.82;100.00
15646;BME280;7922;43.622;1.476;2023-12-22T01:58:20;101077.19;;;10.09;100.00
15646;BME280;7922;43.622;1.476;2023-12-22T02:00:47;101062.34;;;10.02;100.00
15646;BME280;7922;43.622;1.476;2023-12-22T02:03:12;101052.63;;;10.03;100.00
15646;BME280;7922;43.622;1.476;2023-12-22T02:05:40;101044.75;;;10.00;100.00
15646;BME280;7922;43.622;1.476;2023-12-22T02:08:06;101003.81;;;9.76;100.00
15646;BME280;7922;43.622;1.476;2023-12-22T02:10:31;101041.25;;;9.99;100.00
15646;BME280;7922;43.622;1.476;2023-12-22T02:12:56;101040.28;;;10.02;100.00
15646;BME280;7922;43.622;1.476;2023-12-22T02:15:22;101051.50;;;10.13;100.00
15646;BME280;7922;43.622;1.476;2023-12-22T02:18:06;101050.78;;;10.05;100.00
15646;BME280;7922;43.622;1.476;2023-12-22T02:20:32;100976.72;;;9.66;100.00
15646;BME280;7922;43.622;1.476;2023-12-22T02:22:58;101021.94;;;9.94;100.00
15646;BME280;7922;43.622;1.476;2023-12-22T02:25:23;101031.34;;;10.07;100.00
15646;BME280;7922;43.622;1.476;2023-12-22T02:27:57;101024.41;;;10.02;100.00
15646;BME280;7922;43.622;1.476;2023-12-22T02:30:26;101041.75;;;10.15;100.00
15646;BME280;7922;43.622;1.476;2023-12-22T02:32:54;101014.53;;;10.08;100.00
15646;BME280;7922;43.622;1.476;2023-12-22T02:35:24;100989.63;;;9.80;100.00
15646;BME280;7922;43.622;1.476;2023-12-22T02:37:51;100984.06;;;9.91;100.00
15646;BME280;7922;43.622;1.476;2023-12-22T02:40:17;101027.69;;;10.11;100.00
15646;BME280;7922;43.622;1.476;2023-12-22T02:42:44;101028.31;;;10.23;100.00
15646;BME280;7922;43.622;1.476;2023-12-22T02:45:17;100969.84;;;9.95;100.00
15646;BME280;7922;43.622;1.476;2023-12-22T02:47:43;100988.84;;;10.13;100.00
15646;BME280;7922;43.622;1.476;2023-12-22T02:50:09;101006.50;;;10.13;100.00
15646;BME280;7922;43.622;1.476;2023-12-22T02:52:34;101003.88;;;10.11;100.00
15646;BME280;7922;43.622;1.476;2023-12-22T02:55:00;101018.59;;;10.23;100.00
15646;BME280;7922;43.622;1.476;2023-12-22T02:57:25;100953.22;;;9.89;100.00
15646;BME280;7922;43.622;1.476;2023-12-22T02:59:51;100952.44;;;9.86;100.00
15646;BME280;7922;43.622;1.476;2023-12-22T03:02:16;101006.38;;;10.18;100.00
15646;BME280;7922;43.622;1.476;2023-12-22T03:04:41;101012.47;;;10.21;100.00
15646;BME280;7922;43.622;1.476;2023-12-22T03:07:07;100998.44;;;10.18;100.00
15646;BME280;7922;43.622;1.476;2023-12-22T03:09:32;100992.34;;;10.14;100.00
15646;BME280;7922;43.622;1.476;2023-12-22T03:11:57;101000.97;;;10.22;100.00
15646;BME280;7922;43.622;1.476;2023-12-22T03:14:23;100953.09;;;9.96;100.00
15646;BME280;7922;43.622;1.476;2023-12-22T03:16:48;100991.38;;;10.17;100.00
15646;BME280;7922;43.622;1.476;2023-12-22T03:19:13;101017.53;;;10.32;100.00
15646;BME280;7922;43.622;1.476;2023-12-22T03:21:38;101007.03;;;10.29;100.00
15646;BME280;7922;43.622;1.476;2023-12-22T03:24:04;100946.03;;;9.95;100.00
15646;BME280;7922;43.622;1.476;2023-12-22T03:26:29;101001.84;;;10.23;100.00
15646;BME280;7922;43.622;1.476;2023-12-22T03:28:55;100976.59;;;10.08;100.00
15646;BME280;7922;43.622;1.476;2023-12-22T03:31:20;100963.44;;;10.05;100.00
15646;BME280;7922;43.622;1.476;2023-12-22T03:33:45;100995.00;;;10.12;100.00
15646;BME280;7922;43.622;1.476;2023-12-22T03:36:10;100943.50;;;9.90;100.00
15646;BME280;7922;43.622;1.476;2023-12-22T03:38:36;100998.28;;;10.24;100.00
15646;BME280;7922;43.622;1.476;2023-12-22T03:41:01;100957.47;;;9.97;100.00
15646;BME280;7922;43.622;1.476;2023-12-22T03:43:26;101027.09;;;10.38;100.00
15646;BME280;7922;43.622;1.476;2023-12-22T03:45:52;100955.63;;;10.00;100.00
15646;BME280;7922;43.622;1.476;2023-12-22T03:48:17;101008.88;;;10.25;100.00
15646;BME280;7922;43.622;1.476;2023-12-22T03:50:42;100964.56;;;9.95;100.00
15646;BME280;7922;43.622;1.476;2023-12-22T03:53:07;101011.56;;;10.22;100.00
15646;BME280;7922;43.622;1.476;2023-12-22T03:55:33;101016.81;;;10.24;100.00
15646;BME280;7922;43.622;1.476;2023-12-22T03:57:58;101022.19;;;10.21;100.00
15646;BME280;7922;43.622;1.476;2023-12-22T04:00:23;101016.00;;;10.22;100.00
15646;BME280;7922;43.622;1.476;2023-12-22T04:02:48;101011.63;;;10.19;100.00
15646;BME280;7922;43.622;1.476;2023-12-22T04:05:14;101018.53;;;10.28;100.00
15646;BME280;7922;43.622;1.476;2023-12-22T04:07:39;100976.78;;;10.00;100.00
15646;BME280;7922;43.622;1.476;2023-12-22T04:10:05;101033.38;;;10.33;100.00
15646;BME280;7922;43.622;1.476;2023-12-22T04:12:30;101022.13;;;10.25;100.00
15646;BME280;7922;43.622;1.476;2023-12-22T04:14:55;101036.25;;;10.24;100.00
15646;BME280;7922;43.622;1.476;2023-12-22T04:17:21;101038.88;;;10.24;100.00
15646;BME280;7922;43.622;1.476;2023-12-22T04:19:46;100990.09;;;9.99;100.00
15646;BME280;7922;43.622;1.476;2023-12-22T04:22:11;100997.25;;;9.94;100.00
15646;BME280;7922;43.622;1.476;2023-12-22T04:24:36;101044.16;;;10.26;100.00
15646;BME280;7922;43.622;1.476;2023-12-22T04:27:02;100991.94;;;9.94;100.00
15646;BME280;7922;43.622;1.476;2023-12-22T04:29:27;101001.63;;;9.95;100.00
15646;BME280;7922;43.622;1.476;2023-12-22T04:31:52;101026.84;;;10.11;100.00
15646;BME280;7922;43.622;1.476;2023-12-22T04:34:18;101036.41;;;10.17;100.00
15646;BME280;7922;43.622;1.476;2023-12-22T04:36:43;101023.28;;;10.12;100.00
15646;BME280;7922;43.622;1.476;2023-12-22T04:39:08;101016.19;;;10.12;100.00
15646;BME280;7922;43.622;1.476;2023-12-22T04:41:34;101013.53;;;10.12;100.00
15646;BME280;7922;43.622;1.476;2023-12-22T04:43:59;101007.38;;;10.13;100.00
15646;BME280;7922;43.622;1.476;2023-12-22T04:46:24;101016.97;;;10.18;100.00
15646;BME280;7922;43.622;1.476;2023-12-22T04:48:49;101016.91;;;10.21;100.00
15646;BME280;7922;43.622;1.476;2023-12-22T04:51:15;101006.41;;;10.16;100.00
15646;BME280;7922;43.622;1.476;2023-12-22T04:53:40;101036.91;;;10.34;100.00
15646;BME280;7922;43.622;1.476;2023-12-22T04:56:06;101025.56;;;10.27;100.00
15646;BME280;7922;43.622;1.476;2023-12-22T04:58:31;101010.63;;;10.23;100.00
15646;BME280;7922;43.622;1.476;2023-12-22T05:00:56;100982.81;;;10.07;100.00
15646;BME280;7922;43.622;1.476;2023-12-22T05:03:22;101023.81;;;10.28;100.00
15646;BME280;7922;43.622;1.476;2023-12-22T05:05:47;101030.78;;;10.32;100.00
15646;BME280;7922;43.622;1.476;2023-12-22T05:08:12;101022.84;;;10.32;100.00
15646;BME280;7922;43.622;1.476;2023-12-22T05:10:38;101039.47;;;10.39;100.00
15646;BME280;7922;43.622;1.476;2023-12-22T05:13:03;100983.81;;;10.01;100.00
15646;BME280;7922;43.622;1.476;2023-12-22T05:15:28;100974.03;;;10.05;100.00
15646;BME280;7922;43.622;1.476;2023-12-22T05:17:54;101004.56;;;10.20;100.00
15646;BME280;7922;43.622;1.476;2023-12-22T05:20:20;101032.44;;;10.36;100.00
15646;BME280;7922;43.622;1.476;2023-12-22T05:22:45;101021.13;;;10.29;100.00
15646;BME280;7922;43.622;1.476;2023-12-22T05:25:13;101055.97;;;10.48;100.00
15646;BME280;7922;43.622;1.476;2023-12-22T05:27:38;101005.53;;;10.17;100.00
15646;BME280;7922;43.622;1.476;2023-12-22T05:30:04;101044.78;;;10.37;100.00
15646;BME280;7922;43.622;1.476;2023-12-22T05:32:30;101056.22;;;10.38;100.00
15646;BME280;7922;43.622;1.476;2023-12-22T05:34:55;101049.34;;;10.30;100.00
15646;BME280;7922;43.622;1.476;2023-12-22T05:37:20;101040.66;;;10.25;100.00
15646;BME280;7922;43.622;1.476;2023-12-22T05:39:45;101080.88;;;10.41;100.00
15646;BME280;7922;43.622;1.476;2023-12-22T05:42:11;101056.53;;;10.25;100.00
15646;BME280;7922;43.622;1.476;2023-12-22T05:44:36;101025.19;;;10.07;100.00
15646;BME280;7922;43.622;1.476;2023-12-22T05:47:02;101070.66;;;10.26;100.00
15646;BME280;7922;43.622;1.476;2023-12-22T05:49:27;101026.25;;;9.98;100.00
15646;BME280;7922;43.622;1.476;2023-12-22T05:51:52;101083.91;;;10.24;100.00
15646;BME280;7922;43.622;1.476;2023-12-22T05:54:18;101103.28;;;10.28;100.00
15646;BME280;7922;43.622;1.476;2023-12-22T05:56:43;101120.66;;;10.38;100.00
15646;BME280;7922;43.622;1.476;2023-12-22T05:59:08;101105.94;;;10.25;100.00
15646;BME280;7922;43.622;1.476;2023-12-22T06:01:33;101089.41;;;10.15;100.00
15646;BME280;7922;43.622;1.476;2023-12-22T06:03:59;101089.41;;;10.15;100.00
15646;BME280;7922;43.622;1.476;2023-12-22T06:06:24;101105.16;;;10.21;100.00
15646;BME280;7922;43.622;1.476;2023-12-22T06:08:49;101092.03;;;10.15;100.00
15646;BME280;7922;43.622;1.476;2023-12-22T06:11:15;101117.38;;;10.28;100.00
15646;BME280;7922;43.622;1.476;2023-12-22T06:13:40;101104.19;;;10.25;100.00
15646;BME280;7922;43.622;1.476;2023-12-22T06:16:05;101051.03;;;9.94;100.00
15646;BME280;7922;43.622;1.476;2023-12-22T06:18:31;101116.25;;;10.39;100.00
15646;BME280;7922;43.622;1.476;2023-12-22T06:20:58;101108.56;;;10.28;100.00
15646;BME280;7922;43.622;1.476;2023-12-22T06:23:23;101081.44;;;10.15;100.00
15646;BME280;7922;43.622;1.476;2023-12-22T06:25:49;101112.84;;;10.33;100.00
15646;BME280;7922;43.622;1.476;2023-12-22T06:28:14;101050.09;;;9.97;100.00
15646;BME280;7922;43.622;1.476;2023-12-22T06:30:39;101092.84;;;10.19;100.00
15646;BME280;7922;43.622;1.476;2023-12-22T06:33:04;101099.00;;;10.21;100.00
15646;BME280;7922;43.622;1.476;2023-12-22T06:35:30;101104.25;;;10.22;100.00
15646;BME280;7922;43.622;1.476;2023-12-22T06:37:55;101088.56;;;10.13;100.00
15646;BME280;7922;43.622;1.476;2023-12-22T06:40:21;101087.63;;;10.16;100.00
15646;BME280;7922;43.622;1.476;2023-12-22T06:42:46;101095.44;;;10.20;100.00
15646;BME280;7922;43.622;1.476;2023-12-22T06:45:11;101110.22;;;10.32;100.00
15646;BME280;7922;43.622;1.476;2023-12-22T06:47:37;101120.75;;;10.35;100.00
15646;BME280;7922;43.622;1.476;2023-12-22T06:50:02;101123.28;;;10.40;100.00
15646;BME280;7922;43.622;1.476;2023-12-22T06:52:28;101070.25;;;10.04;100.00
15646;BME280;7922;43.622;1.476;2023-12-22T06:54:53;101064.28;;;9.94;100.00
15646;BME280;7922;43.622;1.476;2023-12-22T06:57:19;101139.38;;;10.30;100.00
15646;BME280;7922;43.622;1.476;2023-12-22T06:59:44;101136.66;;;10.33;100.00
15646;BME280;7922;43.622;1.476;2023-12-22T07:02:09;101134.28;;;10.21;100.00
15646;BME280;7922;43.622;1.476;2023-12-22T07:04:35;101109.75;;;10.13;100.00
15646;BME280;7922;43.622;1.476;2023-12-22T07:07:00;101128.25;;;10.15;100.00
15646;BME280;7922;43.622;1.476;2023-12-22T07:11:51;101115.38;;;9.98;100.00
15646;BME280;7922;43.622;1.476;2023-12-22T07:14:17;101124.03;;;10.06;100.00
15646;BME280;7922;43.622;1.476;2023-12-22T07:16:42;101143.09;;;10.22;100.00
15646;BME280;7922;43.622;1.476;2023-12-22T07:19:08;101112.66;;;10.02;100.00
15646;BME280;7922;43.622;1.476;2023-12-22T07:21:34;101137.91;;;10.16;100.00
15646;BME280;7922;43.622;1.476;2023-12-22T07:23:59;101131.94;;;10.07;100.00
15646;BME280;7922;43.622;1.476;2023-12-22T07:26:25;101137.16;;;10.10;100.00
15646;BME280;7922;43.622;1.476;2023-12-22T07:28:50;101150.28;;;10.15;100.00
15646;BME280;7922;43.622;1.476;2023-12-22T07:31:15;101106.03;;;9.81;100.00
15646;BME280;7922;43.622;1.476;2023-12-22T07:33:41;101140.00;;;10.01;100.00
15646;BME280;7922;43.622;1.476;2023-12-22T07:36:07;101138.31;;;9.97;100.00
15646;BME280;7922;43.622;1.476;2023-12-22T07:38:32;101131.41;;;9.90;100.00
15646;BME280;7922;43.622;1.476;2023-12-22T07:40:57;101158.56;;;10.00;100.00
15646;BME280;7922;43.622;1.476;2023-12-22T07:43:23;101154.19;;;9.97;100.00
15646;BME280;7922;43.622;1.476;2023-12-22T07:45:48;101166.47;;;10.03;100.00
15646;BME280;7922;43.622;1.476;2023-12-22T07:48:13;101161.41;;;9.91;100.00
15646;BME280;7922;43.622;1.476;2023-12-22T07:50:38;101160.56;;;9.88;100.00
15646;BME280;7922;43.622;1.476;2023-12-22T07:53:04;101123.06;;;9.68;100.00
15646;BME280;7922;43.622;1.476;2023-12-22T07:55:29;101173.66;;;9.95;100.00
15646;BME280;7922;43.622;1.476;2023-12-22T07:57:54;101166.03;;;9.79;100.00
15646;BME280;7922;43.622;1.476;2023-12-22T08:00:19;101142.44;;;9.70;100.00
15646;BME280;7922;43.622;1.476;2023-12-22T08:02:45;101111.78;;;9.58;100.00
15646;BME280;7922;43.622;1.476;2023-12-22T08:05:10;101183.38;;;9.94;100.00
15646;BME280;7922;43.622;1.476;2023-12-22T08:07:36;101187.69;;;10.00;100.00
15646;BME280;7922;43.622;1.476;2023-12-22T08:10:02;101178.94;;;9.96;100.00
15646;BME280;7922;43.622;1.476;2023-12-22T08:12:28;101126.72;;;9.62;100.00
15646;BME280;7922;43.622;1.476;2023-12-22T08:14:53;101134.50;;;9.70;100.00
15646;BME280;7922;43.622;1.476;2023-12-22T08:17:19;101209.50;;;10.11;100.00
15646;BME280;7922;43.622;1.476;2023-12-22T08:19:44;101195.50;;;10.06;100.00
15646;BME280;7922;43.622;1.476;2023-12-22T08:22:10;101193.69;;;10.09;100.00
15646;BME280;7922;43.622;1.476;2023-12-22T08:24:35;101218.16;;;10.21;100.00
15646;BME280;7922;43.622;1.476;2023-12-22T08:27:00;101180.44;;;10.08;100.00
15646;BME280;7922;43.622;1.476;2023-12-22T08:29:26;101149.00;;;9.93;100.00
15646;BME280;7922;43.622;1.476;2023-12-22T08:31:51;101196.06;;;10.20;100.00
15646;BME280;7922;43.622;1.476;2023-12-22T08:34:17;101211.75;;;10.31;100.00
15646;BME280;7922;43.622;1.476;2023-12-22T08:36:42;101212.66;;;10.31;100.00
15646;BME280;7922;43.622;1.476;2023-12-22T08:39:07;101208.31;;;10.27;100.00
15646;BME280;7922;43.622;1.476;2023-12-22T08:41:33;101205.84;;;10.18;100.00
15646;BME280;7922;43.622;1.476;2023-12-22T08:43:58;101210.94;;;10.29;100.00
15646;BME280;7922;43.622;1.476;2023-12-22T08:46:23;101211.75;;;10.31;100.00
15646;BME280;7922;43.622;1.476;2023-12-22T08:48:48;101225.81;;;10.34;100.00
15646;BME280;7922;43.622;1.476;2023-12-22T08:51:14;101213.59;;;10.29;100.00
15646;BME280;7922;43.622;1.476;2023-12-22T08:53:39;101216.97;;;10.35;100.00
15646;BME280;7922;43.622;1.476;2023-12-22T08:56:04;101217.81;;;10.38;100.00
15646;BME280;7922;43.622;1.476;2023-12-22T08:58:30;101205.59;;;10.30;100.00
15646;BME280;7922;43.622;1.476;2023-12-22T09:00:55;101195.19;;;10.21;100.00
15646;BME280;7922;43.622;1.476;2023-12-22T09:03:20;101215.16;;;10.38;100.00
15646;BME280;7922;43.622;1.476;2023-12-22T09:05:45;101209.03;;;10.35;100.00
15646;BME280;7922;43.622;1.476;2023-12-22T09:08:11;101237.94;;;10.46;100.00
15646;BME280;7922;43.622;1.476;2023-12-22T09:10:36;101222.09;;;10.43;100.00
15646;BME280;7922;43.622;1.476;2023-12-22T09:13:01;101254.31;;;10.64;100.00
15646;BME280;7922;43.622;1.476;2023-12-22T09:15:27;101201.28;;;10.26;100.00
15646;BME280;7922;43.622;1.476;2023-12-22T09:17:52;101192.34;;;10.32;100.00
15646;BME280;7922;43.622;1.476;2023-12-22T09:20:17;101211.41;;;10.48;100.00
15646;BME280;7922;43.622;1.476;2023-12-22T09:22:43;101212.03;;;10.59;100.00
15646;BME280;7922;43.622;1.476;2023-12-22T09:25:08;101164.88;;;10.36;100.00
15646;BME280;7922;43.622;1.476;2023-12-22T09:27:33;101205.69;;;10.66;100.00
15646;BME280;7922;43.622;1.476;2023-12-22T09:29:59;101218.09;;;10.64;100.00
15646;BME280;7922;43.622;1.476;2023-12-22T09:32:24;101226.38;;;10.88;100.00
15646;BME280;7922;43.622;1.476;2023-12-22T09:34:49;101216.53;;;10.93;100.00
15646;BME280;7922;43.622;1.476;2023-12-22T09:37:14;101222.06;;;10.83;100.00
15646;BME280;7922;43.622;1.476;2023-12-22T09:39:40;101220.22;;;10.85;100.00
15646;BME280;7922;43.622;1.476;2023-12-22T09:42:05;101219.28;;;10.90;100.00
15646;BME280;7922;43.622;1.476;2023-12-22T09:44:32;101227.06;;;10.97;100.00
15646;BME280;7922;43.622;1.476;2023-12-22T09:46:58;101231.31;;;11.03;100.00
15646;BME280;7922;43.622;1.476;2023-12-22T09:49:24;101218.84;;;11.06;100.00
15646;BME280;7922;43.622;1.476;2023-12-22T09:51:50;101230.44;;;11.04;100.00
15646;BME280;7922;43.622;1.476;2023-12-22T09:54:16;101248.59;;;11.19;100.00
15646;BME280;7922;43.622;1.476;2023-12-22T09:56:42;101233.22;;;10.96;100.00
15646;BME280;7922;43.622;1.476;2023-12-22T09:59:11;101236.59;;;11.04;100.00
15646;BME280;7922;43.622;1.476;2023-12-22T10:01:42;101203.50;;;10.83;100.00
15646;BME280;7922;43.622;1.476;2023-12-22T10:04:08;101257.75;;;11.06;100.00
15646;BME280;7922;43.622;1.476;2023-12-22T10:06:34;101254.25;;;11.05;100.00
15646;BME280;7922;43.622;1.476;2023-12-22T10:08:59;101265.78;;;11.03;100.00
15646;BME280;7922;43.622;1.476;2023-12-22T10:11:27;101265.69;;;11.07;100.00
15646;BME280;7922;43.622;1.476;2023-12-22T10:13:53;101262.34;;;10.99;100.00
15646;BME280;7922;43.622;1.476;2023-12-22T10:16:20;101243.63;;;11.05;100.00
15646;BME280;7922;43.622;1.476;2023-12-22T10:18:46;101250.66;;;11.06;100.00
15646;BME280;7922;43.622;1.476;2023-12-22T10:21:11;101248.81;;;11.12;100.00
15646;BME280;7922;43.622;1.476;2023-12-22T10:23:36;101197.91;;;10.96;100.00
15646;BME280;7922;43.622;1.476;2023-12-22T10:26:02;101224.13;;;11.08;100.00
15646;BME280;7922;43.622;1.476;2023-12-22T10:28:27;101240.53;;;11.24;100.00
15646;BME280;7922;43.622;1.476;2023-12-22T10:30:53;101246.09;;;11.47;100.00
15646;BME280;7922;43.622;1.476;2023-12-22T10:33:18;101237.13;;;11.53;100.00
15646;BME280;7922;43.622;1.476;2023-12-22T10:35:43;101197.97;;;11.28;100.00
15646;BME280;7922;43.622;1.476;2023-12-22T10:38:09;101247.59;;;11.59;100.00
15646;BME280;7922;43.622;1.476;2023-12-22T10:40:37;101234.53;;;11.51;100.00
15646;BME280;7922;43.622;1.476;2023-12-22T10:43:02;101239.03;;;11.48;100.00
15646;BME280;7922;43.622;1.476;2023-12-22T10:45:29;101243.09;;;11.61;100.00
15646;BME280;7922;43.622;1.476;2023-12-22T10:47:54;101197.06;;;11.29;100.00
15646;BME280;7922;43.622;1.476;2023-12-22T10:50:20;101243.16;;;11.60;100.00
15646;BME280;7922;43.622;1.476;2023-12-22T10:52:49;101226.78;;;11.44;100.00
15646;BME280;7922;43.622;1.476;2023-12-22T10:55:15;101225.34;;;11.30;100.00
15646;BME280;7922;43.622;1.476;2023-12-22T10:57:41;101177.50;;;10.99;100.00
15646;BME280;7922;43.622;1.476;2023-12-22T11:00:07;101227.06;;;11.33;100.00
15646;BME280;7922;43.622;1.476;2023-12-22T11:02:33;101204.13;;;11.29;100.00
15646;BME280;7922;43.622;1.476;2023-12-22T11:05:03;101223.44;;;11.36;100.00
15646;BME280;7922;43.622;1.476;2023-12-22T11:07:29;101241.78;;;11.45;100.00
15646;BME280;7922;43.622;1.476;2023-12-22T11:09:56;101203.31;;;11.27;100.00
15646;BME280;7922;43.622;1.476;2023-12-22T11:12:25;101173.69;;;11.09;100.00
15646;BME280;7922;43.622;1.476;2023-12-22T11:14:53;101176.81;;;11.25;100.00
15646;BME280;7922;43.622;1.476;2023-12-22T11:17:19;101222.91;;;11.55;100.00
15646;BME280;7922;43.622;1.476;2023-12-22T11:19:49;101173.03;;;11.36;100.00
15646;BME280;7922;43.622;1.476;2023-12-22T11:22:16;101197.69;;;11.39;100.00
15646;BME280;7922;43.622;1.476;2023-12-22T11:24:42;101154.72;;;11.26;100.00
15646;BME280;7922;43.622;1.476;2023-12-22T11:27:09;101201.72;;;11.54;100.00
15646;BME280;7922;43.622;1.476;2023-12-22T11:29:37;101180.91;;;11.39;100.00
15646;BME280;7922;43.622;1.476;2023-12-22T11:32:05;101191.56;;;11.37;100.00
15646;BME280;7922;43.622;1.476;2023-12-22T11:34:32;101168.50;;;11.39;100.00
15646;BME280;7922;43.622;1.476;2023-12-22T11:37:03;101188.06;;;11.35;100.00
15646;BME280;7922;43.622;1.476;2023-12-22T11:39:28;101185.41;;;11.35;100.00
15646;BME280;7922;43.622;1.476;2023-12-22T11:41:54;101189.91;;;11.33;100.00
15646;BME280;7922;43.622;1.476;2023-12-22T11:44:20;101148.84;;;11.14;100.00
15646;BME280;7922;43.622;1.476;2023-12-22T11:46:46;101191.38;;;11.43;100.00
15646;BME280;7922;43.622;1.476;2023-12-22T11:49:11;101183.84;;;11.61;100.00
15646;BME280;7922;43.622;1.476;2023-12-22T11:51:37;101185.50;;;11.65;100.00
15646;BME280;7922;43.622;1.476;2023-12-22T11:54:03;101161.63;;;11.65;100.00
15646;BME280;7922;43.622;1.476;2023-12-22T11:56:29;101182.91;;;11.94;100.00
15646;BME280;7922;43.622;1.476;2023-12-22T11:58:55;101175.19;;;11.87;100.00
15646;BME280;7922;43.622;1.476;2023-12-22T12:01:22;101167.97;;;11.92;100.00
15646;BME280;7922;43.622;1.476;2023-12-22T12:08:50;101110.16;;;11.70;100.00
15646;BME280;7922;43.622;1.476;2023-12-22T12:11:15;101164.16;;;12.00;100.00
15646;BME280;7922;43.622;1.476;2023-12-22T12:13:42;101159.78;;;11.99;100.00
15646;BME280;7922;43.622;1.476;2023-12-22T12:16:08;101160.59;;;11.70;100.00
15646;BME280;7922;43.622;1.476;2023-12-22T12:18:34;101112.13;;;11.31;100.00
15646;BME280;7922;43.622;1.476;2023-12-22T12:21:00;101170.63;;;11.59;100.00
15646;BME280;7922;43.622;1.476;2023-12-22T12:23:26;101157.81;;;11.42;100.00
15646;BME280;7922;43.622;1.476;2023-12-22T12:25:55;101135.81;;;11.39;100.00
15646;BME280;7922;43.622;1.476;2023-12-22T12:28:32;101152.75;;;11.66;100.00
15646;BME280;7922;43.622;1.476;2023-12-22T12:31:04;101146.38;;;11.73;100.00
15646;BME280;7922;43.622;1.476;2023-12-22T12:33:30;101113.63;;;11.72;100.00
15646;BME280;7922;43.622;1.476;2023-12-22T12:35:59;101094.47;;;11.61;100.00
15646;BME280;7922;43.622;1.476;2023-12-22T12:38:46;101148.75;;;12.13;100.00
15646;BME280;7922;43.622;1.476;2023-12-22T12:41:15;101131.81;;;12.17;100.00
15646;BME280;7922;43.622;1.476;2023-12-22T12:43:42;101108.63;;;11.93;100.00
15646;BME280;7922;43.622;1.476;2023-12-22T12:46:08;101134.38;;;12.20;100.00
15646;BME280;7922;43.622;1.476;2023-12-22T12:48:33;101090.91;;;11.93;100.00
15646;BME280;7922;43.622;1.476;2023-12-22T12:51:05;101130.41;;;12.06;100.00
15646;BME280;7922;43.622;1.476;2023-12-22T12:53:31;101067.06;;;11.92;100.00